BAW710 LLBG-EGCC
Flight info
| Callsign | BAW710 |
|---|---|
| Flight time | N/A |
| Altitude | 30000 |
| Route | SUVAS1E SUVAS N128 OTHON UN128 YOYYO/N0460F320 UN128 LMO DCT EVIVI L863 OKANA DCT XENIT DCT BABIT DCT SASAL/N0452F340 DCT RENKA DCT INBED DCT BOMBI DCT ADKUV DCT SOGRI DCT DENUT L610 LAM UN57 WELIN T420 TNT DCT |
| Aircraft | A321 |
Departure
| Time | N/A |
|---|---|
| Airport | Ben Gurion International Airport (LLBG) |
Arrival
| Time | 2026-05-06 16:40 |
|---|---|
| Airport | Manchester Airport (EGCC) |
| Time | Latitude | Longitude | Altitude | Speed | Heading |
|---|---|---|---|---|---|
| 2026-05-06 16:33 | 53.29500 | -2.26112 | 3032 ft | 235 kts | 245° |
| 2026-05-06 16:33 | 53.28831 | -2.28613 | 3007 ft | 236 kts | 245° |
| 2026-05-06 16:33 | 53.28160 | -2.31119 | 3007 ft | 238 kts | 245° |
| 2026-05-06 16:34 | 53.26659 | -2.36730 | 3012 ft | 240 kts | 245° |
| 2026-05-06 16:34 | 53.23953 | -2.46814 | 3002 ft | 238 kts | 245° |
| 2026-05-06 16:34 | 53.21815 | -2.54733 | 2996 ft | 239 kts | 246° |
| 2026-05-06 16:34 | 53.21525 | -2.57420 | 2999 ft | 236 kts | 281° |
| 2026-05-06 16:35 | 53.22281 | -2.59775 | 3003 ft | 234 kts | 322° |
| 2026-05-06 16:35 | 53.23750 | -2.60753 | 3004 ft | 230 kts | 2° |
| 2026-05-06 16:35 | 53.25216 | -2.59906 | 3012 ft | 221 kts | 43° |
| 2026-05-06 16:35 | 53.25926 | -2.57793 | 3009 ft | 213 kts | 81° |
| 2026-05-06 16:36 | 53.26125 | -2.55354 | 3005 ft | 212 kts | 82° |
| 2026-05-06 16:36 | 53.26356 | -2.52941 | 2987 ft | 209 kts | 81° |
| 2026-05-06 16:36 | 53.26588 | -2.50537 | 2823 ft | 209 kts | 81° |
| 2026-05-06 16:36 | 53.26820 | -2.48135 | 2583 ft | 209 kts | 81° |
| 2026-05-06 16:37 | 53.26974 | -2.46538 | 2427 ft | 202 kts | 81° |
| 2026-05-06 16:37 | 53.27251 | -2.44309 | 2193 ft | 190 kts | 71° |
| 2026-05-06 16:37 | 53.27817 | -2.42463 | 1958 ft | 173 kts | 58° |
| 2026-05-06 16:37 | 53.28481 | -2.40900 | 1747 ft | 160 kts | 54° |
| 2026-05-06 16:38 | 53.29145 | -2.39468 | 1522 ft | 150 kts | 53° |
| 2026-05-06 16:38 | 53.29781 | -2.38133 | 1331 ft | 144 kts | 53° |
| 2026-05-06 16:38 | 53.30408 | -2.36831 | 1118 ft | 144 kts | 52° |
| 2026-05-06 16:38 | 53.31036 | -2.35530 | 916 ft | 144 kts | 53° |
| 2026-05-06 16:39 | 53.31670 | -2.34221 | 721 ft | 144 kts | 52° |
| 2026-05-06 16:39 | 53.32303 | -2.32915 | 519 ft | 145 kts | 53° |
| 2026-05-06 16:39 | 53.32937 | -2.31606 | 323 ft | 145 kts | 52° |
| 2026-05-06 16:39 | 53.33556 | -2.30316 | 229 ft | 130 kts | 53° |
| 2026-05-06 16:40 | 53.33939 | -2.29541 | 228 ft | 43 kts | 50° |
| 2026-05-06 16:40 | 53.34101 | -2.29194 | 231 ft | 36 kts | 52° |
| 2026-05-06 16:40 | 53.34260 | -2.28865 | 227 ft | 38 kts | 51° |